Time;durP1;ratioP1;P1;durP2;ratioP2;P2;SDS_P1;SDS_P2;PMS_P1;PMS_P2;Temp;Humidity;BMP_temperature;BMP_pressure;BME280_temperature;BME280_humidity;BME280_pressure;Samples;Min_cycle;Max_cycle;Signal;HPM_P1;HPM_P2
2024/01/22 00:01:42;;;;;;;;;;;-2.70;99.90;;;;;;5055196;28;19980;-78
2024/01/22 00:04:07;;;;;;;;;;;-2.70;99.90;;;;;;5073465;28;20321;-77
2024/01/22 00:06:35;;;;;;;;;;;-2.70;99.90;;;;;;5073441;28;20373;-77
2024/01/22 00:09:01;;;;;;;;;;;-2.80;99.90;;;;;;5073198;28;19927;-77
2024/01/22 00:11:27;;;;;;;;;;;-2.90;99.90;;;;;;5073502;28;19909;-77
2024/01/22 00:13:52;;;;;;;;;;;-2.90;99.90;;;;;;5055331;28;19916;-77
2024/01/22 00:16:18;;;;;;;;;;;-2.90;99.90;;;;;;5074050;28;19912;-77
2024/01/22 00:18:43;;;;;;;;;;;-2.90;99.90;;;;;;5081655;28;19912;-79
2024/01/22 00:21:09;;;;;;;;;;;-3.00;99.90;;;;;;5082052;28;19920;-76
2024/01/22 00:23:34;;;;;;;;;;;-3.00;99.90;;;;;;5053789;28;19935;-77
2024/01/22 00:26:00;;;;;;;;;;;-3.00;99.90;;;;;;5055250;28;19948;-77
2024/01/22 00:28:25;;;;;;;;;;;-2.90;99.90;;;;;;5054171;28;20372;-77
2024/01/22 00:30:51;;;;;;;;;;;-3.00;99.90;;;;;;5053961;28;19922;-78
2024/01/22 00:33:16;;;;;;;;;;;-3.10;99.90;;;;;;5072589;28;19938;-77
2024/01/22 00:35:42;;;;;;;;;;;-3.00;99.90;;;;;;5071899;28;19916;-77
2024/01/22 00:38:07;;;;;;;;;;;-3.10;99.90;;;;;;5071797;28;20037;-77
2024/01/22 00:40:33;;;;;;;;;;;-3.10;99.90;;;;;;5071569;28;19908;-77
2024/01/22 00:42:58;;;;;;;;;;;-3.10;99.90;;;;;;5072289;28;19920;-77
2024/01/22 00:45:24;;;;;;;;;;;-3.20;99.90;;;;;;5071941;28;19908;-77
2024/01/22 00:47:49;;;;;;;;;;;-3.30;99.90;;;;;;5071714;28;19916;-77
2024/01/22 00:50:15;;;;;;;;;;;-3.20;99.90;;;;;;5054056;28;19916;-76
2024/01/22 00:52:40;;;;;;;;;;;-3.10;99.90;;;;;;5054279;28;20381;-76
2024/01/22 00:55:06;;;;;;;;;;;-3.10;99.90;;;;;;5053557;28;20377;-77
2024/01/22 00:57:31;;;;;;;;;;;-3.00;99.90;;;;;;5071600;28;19966;-77
2024/01/22 00:59:57;;;;;;;;;;;-3.00;99.90;;;;;;5071320;28;19908;-77
2024/01/22 01:02:22;;;;;;;;;;;-3.00;99.90;;;;;;5071597;28;20380;-77
2024/01/22 01:04:48;;;;;;;;;;;-3.00;99.90;;;;;;5070730;28;19912;-76
2024/01/22 01:07:13;;;;;;;;;;;-3.00;99.90;;;;;;5071793;28;19939;-77
2024/01/22 01:09:40;;;;;;;;;;;-3.10;99.90;;;;;;5071387;28;19920;-76
2024/01/22 01:12:05;;;;;;;;;;;-3.20;99.90;;;;;;5053610;28;19912;-77
2024/01/22 01:14:32;;;;;;;;;;;-3.20;99.90;;;;;;5071530;28;19919;-78
2024/01/22 01:16:58;;;;;;;;;;;-3.20;99.90;;;;;;5053721;28;19913;-78
2024/01/22 01:19:24;;;;;;;;;;;-3.10;99.90;;;;;;5071154;28;19912;-77
2024/01/22 01:21:50;;;;;;;;;;;-3.30;99.90;;;;;;5071834;28;20776;-77
2024/01/22 01:24:15;;;;;;;;;;;-3.30;99.90;;;;;;5071663;28;19909;-77
2024/01/22 01:26:41;;;;;;;;;;;-3.20;99.90;;;;;;5053386;28;19909;-77
2024/01/22 01:29:07;;;;;;;;;;;-3.40;99.90;;;;;;5071553;28;19920;-77
2024/01/22 01:31:32;;;;;;;;;;;-3.40;99.90;;;;;;5071911;28;19916;-77
2024/01/22 01:33:58;;;;;;;;;;;-3.30;99.90;;;;;;5071678;28;19909;-77
2024/01/22 01:36:23;;;;;;;;;;;-3.30;99.90;;;;;;5053423;28;19960;-77
2024/01/22 01:38:49;;;;;;;;;;;-3.30;99.90;;;;;;5071831;28;19916;-77
2024/01/22 01:41:14;;;;;;;;;;;-3.20;99.90;;;;;;5071679;28;20018;-77
2024/01/22 01:43:40;;;;;;;;;;;-3.30;99.90;;;;;;5053669;28;20377;-79
2024/01/22 01:46:05;;;;;;;;;;;-3.40;99.90;;;;;;5072054;28;19909;-77
2024/01/22 01:48:32;;;;;;;;;;;-3.30;99.90;;;;;;5053937;28;19916;-78
2024/01/22 01:50:57;;;;;;;;;;;-3.30;99.90;;;;;;5071573;28;20015;-77
2024/01/22 01:53:23;;;;;;;;;;;-3.30;99.90;;;;;;5053724;28;20030;-78
2024/01/22 01:55:49;;;;;;;;;;;-3.40;99.90;;;;;;5053766;28;19920;-77
2024/01/22 01:58:16;;;;;;;;;;;-3.50;99.90;;;;;;5071358;28;20434;-77
2024/01/22 02:00:43;;;;;;;;;;;-3.50;99.90;;;;;;5060252;28;19912;-78
2024/01/22 02:03:09;;;;;;;;;;;-3.50;99.90;;;;;;5051959;28;20310;-78
2024/01/22 02:05:34;;;;;;;;;;;-3.50;99.90;;;;;;5051429;28;19915;-77
2024/01/22 02:08:00;;;;;;;;;;;-3.60;99.90;;;;;;5051460;28;19920;-77
2024/01/22 02:10:26;;;;;;;;;;;-3.70;99.90;;;;;;5052588;28;20411;-77
2024/01/22 02:12:51;;;;;;;;;;;-3.70;99.90;;;;;;5054135;28;20419;-78
2024/01/22 02:15:17;;;;;;;;;;;-3.70;99.90;;;;;;5054921;28;20422;-78
2024/01/22 02:17:43;;;;;;;;;;;-3.60;99.90;;;;;;5055080;28;19932;-78
2024/01/22 02:20:09;;;;;;;;;;;-3.60;99.90;;;;;;5054060;28;19944;-77
2024/01/22 02:22:34;;;;;;;;;;;-3.50;99.90;;;;;;5053138;28;20403;-77
2024/01/22 02:25:00;;;;;;;;;;;-3.60;99.90;;;;;;5053677;28;20395;-76
2024/01/22 02:27:26;;;;;;;;;;;-3.50;99.90;;;;;;5054682;28;19913;-78
2024/01/22 02:29:53;;;;;;;;;;;-3.50;99.90;;;;;;5054315;28;20206;-77
2024/01/22 02:32:19;;;;;;;;;;;-3.40;99.90;;;;;;5053670;28;19909;-78
2024/01/22 02:34:44;;;;;;;;;;;-3.50;99.90;;;;;;5053412;28;20399;-77
2024/01/22 02:37:10;;;;;;;;;;;-3.50;99.90;;;;;;5054627;28;19917;-78
2024/01/22 02:39:36;;;;;;;;;;;-3.40;99.90;;;;;;5054621;28;19919;-76
2024/01/22 02:42:02;;;;;;;;;;;-3.50;99.90;;;;;;5054335;28;19913;-77
2024/01/22 02:44:27;;;;;;;;;;;-3.50;99.90;;;;;;5054489;28;19964;-77
2024/01/22 02:46:53;;;;;;;;;;;-3.60;99.90;;;;;;5052933;28;20366;-77
2024/01/22 02:49:18;;;;;;;;;;;-3.60;99.90;;;;;;5054347;28;19917;-77
2024/01/22 02:51:44;;;;;;;;;;;-3.70;99.90;;;;;;5053427;28;19999;-77
2024/01/22 02:54:09;;;;;;;;;;;-3.80;99.90;;;;;;5054526;28;19913;-76
2024/01/22 02:56:35;;;;;;;;;;;-3.80;99.90;;;;;;5054006;28;20323;-77
2024/01/22 02:59:00;;;;;;;;;;;-3.80;99.90;;;;;;5052780;28;19917;-77
2024/01/22 03:01:26;;;;;;;;;;;-3.90;99.90;;;;;;5053513;28;20030;-78
2024/01/22 03:03:52;;;;;;;;;;;-3.90;99.90;;;;;;5055436;28;19913;-78
2024/01/22 03:06:17;;;;;;;;;;;-4.00;99.90;;;;;;5055160;28;19919;-77
2024/01/22 03:08:43;;;;;;;;;;;-4.10;99.90;;;;;;5055202;28;19909;-78
2024/01/22 03:11:09;;;;;;;;;;;-4.20;99.90;;;;;;5064286;28;19919;-78
2024/01/22 03:13:35;;;;;;;;;;;-4.10;99.90;;;;;;5062550;28;20408;-78
2024/01/22 03:16:00;;;;;;;;;;;-4.00;99.90;;;;;;5053882;28;19912;-78
2024/01/22 03:18:26;;;;;;;;;;;-4.00;99.90;;;;;;5053378;28;19913;-77
2024/01/22 03:20:51;;;;;;;;;;;-3.90;99.90;;;;;;5052010;28;19925;-77
2024/01/22 03:23:17;;;;;;;;;;;-4.00;99.90;;;;;;5052248;28;19923;-77
2024/01/22 03:25:43;;;;;;;;;;;-4.00;99.90;;;;;;5052957;28;19909;-77
2024/01/22 03:28:08;;;;;;;;;;;-4.00;99.90;;;;;;5052773;28;19908;-76
2024/01/22 03:30:34;;;;;;;;;;;-4.10;99.90;;;;;;5053085;28;19917;-77
2024/01/22 03:32:59;;;;;;;;;;;-4.10;99.90;;;;;;5053476;28;19916;-77
2024/01/22 03:35:25;;;;;;;;;;;-4.10;99.90;;;;;;5052947;28;19962;-76
2024/01/22 03:37:50;;;;;;;;;;;-4.00;99.90;;;;;;5053185;28;20301;-77
2024/01/22 03:40:16;;;;;;;;;;;-4.10;99.90;;;;;;5053025;28;19909;-77
2024/01/22 03:42:41;;;;;;;;;;;-4.10;99.90;;;;;;5053140;28;19920;-77
2024/01/22 03:45:07;;;;;;;;;;;-4.10;99.90;;;;;;5051994;28;19917;-77
2024/01/22 03:47:33;;;;;;;;;;;-4.00;99.90;;;;;;5052914;28;19913;-77
2024/01/22 03:49:58;;;;;;;;;;;-3.90;99.90;;;;;;5052716;28;20001;-77
2024/01/22 03:52:24;;;;;;;;;;;-3.80;99.90;;;;;;5053025;28;19960;-77
2024/01/22 03:54:49;;;;;;;;;;;-3.90;99.90;;;;;;5053139;28;19959;-78
2024/01/22 03:57:15;;;;;;;;;;;-3.90;99.90;;;;;;5052555;28;19952;-76
2024/01/22 03:59:41;;;;;;;;;;;-3.90;99.90;;;;;;5051533;28;19948;-77
2024/01/22 04:02:07;;;;;;;;;;;-4.00;99.90;;;;;;5051293;28;19917;-75
2024/01/22 04:04:33;;;;;;;;;;;-4.20;99.90;;;;;;5051576;28;20323;-77
2024/01/22 04:06:59;;;;;;;;;;;-4.30;99.90;;;;;;5051359;28;19909;-76
2024/01/22 04:09:25;;;;;;;;;;;-4.30;99.90;;;;;;5052308;28;20011;-76
2024/01/22 04:11:51;;;;;;;;;;;-4.40;99.90;;;;;;5051554;28;19939;-76
2024/01/22 04:14:16;;;;;;;;;;;-4.40;99.90;;;;;;5051193;28;19913;-76
2024/01/22 04:16:43;;;;;;;;;;;-4.30;99.90;;;;;;5053044;28;20410;-76
2024/01/22 04:19:09;;;;;;;;;;;-4.30;99.90;;;;;;5053051;28;20347;-77
2024/01/22 04:21:34;;;;;;;;;;;-4.30;99.90;;;;;;5052813;28;19929;-78
2024/01/22 04:24:00;;;;;;;;;;;-4.30;99.90;;;;;;5053044;28;19974;-77
2024/01/22 04:26:25;;;;;;;;;;;-4.40;99.90;;;;;;5053030;28;20405;-78
2024/01/22 04:28:51;;;;;;;;;;;-4.20;99.90;;;;;;5065223;28;19922;-77
2024/01/22 04:31:16;;;;;;;;;;;-4.10;99.90;;;;;;5072549;28;19961;-78
2024/01/22 04:33:42;;;;;;;;;;;-4.10;99.90;;;;;;5056855;28;19908;-78
2024/01/22 04:36:08;;;;;;;;;;;-4.10;99.90;;;;;;5073816;28;19908;-77
2024/01/22 04:38:33;;;;;;;;;;;-4.10;99.90;;;;;;5054036;28;20006;-77
2024/01/22 04:40:59;;;;;;;;;;;-4.10;99.90;;;;;;5071993;28;19908;-77
2024/01/22 04:43:24;;;;;;;;;;;-4.00;99.90;;;;;;5053119;28;19916;-77
2024/01/22 04:45:50;;;;;;;;;;;-3.90;99.90;;;;;;5053850;28;20300;-77
2024/01/22 04:48:15;;;;;;;;;;;-4.00;99.90;;;;;;5053207;28;19947;-76
2024/01/22 04:50:41;;;;;;;;;;;-4.20;99.90;;;;;;5071528;28;19941;-76
2024/01/22 04:53:06;;;;;;;;;;;-4.30;99.90;;;;;;5071729;28;19912;-77
2024/01/22 04:55:32;;;;;;;;;;;-4.40;99.90;;;;;;5071339;28;20373;-77
2024/01/22 04:57:58;;;;;;;;;;;-4.40;99.90;;;;;;5071201;28;19912;-77
2024/01/22 05:00:23;;;;;;;;;;;-4.50;99.90;;;;;;5053390;28;19912;-77
2024/01/22 05:02:48;;;;;;;;;;;-4.60;99.90;;;;;;5053918;28;19908;-78
2024/01/22 05:05:14;;;;;;;;;;;-4.70;99.90;;;;;;5054194;28;20395;-77
2024/01/22 05:07:40;;;;;;;;;;;-4.60;99.90;;;;;;5072910;28;19967;-77
2024/01/22 05:10:06;;;;;;;;;;;-4.60;99.90;;;;;;5054135;28;19917;-77
2024/01/22 05:12:31;;;;;;;;;;;-4.60;99.90;;;;;;5071507;28;19912;-79
2024/01/22 05:14:57;;;;;;;;;;;-4.60;99.90;;;;;;5071586;28;19916;-77
2024/01/22 05:17:23;;;;;;;;;;;-4.60;99.90;;;;;;5053582;28;20004;-77
2024/01/22 05:19:49;;;;;;;;;;;-4.60;99.90;;;;;;5071447;28;20301;-77
2024/01/22 05:22:15;;;;;;;;;;;-4.60;99.90;;;;;;5052700;28;19938;-77
2024/01/22 05:24:40;;;;;;;;;;;-4.50;99.90;;;;;;5050153;28;19966;-77
2024/01/22 05:27:07;;;;;;;;;;;-4.50;99.90;;;;;;5052294;28;19922;-76
2024/01/22 05:29:33;;;;;;;;;;;-4.40;99.90;;;;;;5065700;28;19946;-77
2024/01/22 05:31:58;;;;;;;;;;;-4.50;99.90;;;;;;5051396;28;19913;-77
2024/01/22 05:34:24;;;;;;;;;;;-4.50;99.90;;;;;;5052325;28;20336;-77
2024/01/22 05:36:49;;;;;;;;;;;-4.50;99.90;;;;;;5050133;28;19995;-77
2024/01/22 05:39:15;;;;;;;;;;;-4.40;99.90;;;;;;5051038;28;20003;-77
2024/01/22 05:41:41;;;;;;;;;;;-4.30;99.90;;;;;;5058550;28;20315;-78
2024/01/22 05:44:07;;;;;;;;;;;-4.30;99.90;;;;;;5070917;28;19921;-77
2024/01/22 05:46:33;;;;;;;;;;;-4.30;99.90;;;;;;5071799;28;19920;-78
2024/01/22 05:48:58;;;;;;;;;;;-4.40;99.90;;;;;;5071598;28;19954;-79
2024/01/22 05:51:24;;;;;;;;;;;-4.50;99.90;;;;;;5070572;28;19916;-77
2024/01/22 05:53:50;;;;;;;;;;;-4.40;99.90;;;;;;5071456;28;19931;-78
2024/01/22 05:56:22;;;;;;;;;;;-4.50;99.90;;;;;;5051967;28;19909;-78
2024/01/22 05:58:48;;;;;;;;;;;-4.50;99.90;;;;;;5059392;28;19919;-78
2024/01/22 06:01:20;;;;;;;;;;;-4.50;99.90;;;;;;5061756;28;19924;-78
2024/01/22 06:03:46;;;;;;;;;;;-4.40;99.90;;;;;;5052920;28;19913;-77
2024/01/22 06:06:12;;;;;;;;;;;-4.40;99.90;;;;;;5052196;28;19912;-78
2024/01/22 06:08:38;;;;;;;;;;;-4.40;99.90;;;;;;5054021;28;19916;-77
2024/01/22 06:11:04;;;;;;;;;;;-4.50;99.90;;;;;;5057886;28;19928;-78
2024/01/22 06:13:31;;;;;;;;;;;-4.40;99.90;;;;;;5071539;28;19999;-78
2024/01/22 06:15:58;;;;;;;;;;;-4.50;99.90;;;;;;5071572;28;20368;-77
2024/01/22 06:18:24;;;;;;;;;;;-4.60;99.90;;;;;;5051142;28;19908;-78
2024/01/22 06:20:49;;;;;;;;;;;-4.60;99.90;;;;;;5059480;28;20332;-79
2024/01/22 06:23:15;;;;;;;;;;;-4.50;99.90;;;;;;5071519;28;20385;-77
2024/01/22 06:25:40;;;;;;;;;;;-4.60;99.90;;;;;;5071993;28;19912;-78
2024/01/22 06:28:06;;;;;;;;;;;-4.50;99.90;;;;;;5071424;28;19913;-77
2024/01/22 06:30:31;;;;;;;;;;;-4.50;99.90;;;;;;5069809;28;19938;-77
2024/01/22 06:32:56;;;;;;;;;;;-4.50;99.90;;;;;;5052774;28;19916;-78
2024/01/22 06:35:22;;;;;;;;;;;-4.30;99.90;;;;;;5071483;28;19952;-77
2024/01/22 06:37:47;;;;;;;;;;;-4.00;99.90;;;;;;5070698;28;19991;-79
2024/01/22 06:40:16;;;;;;;;;;;-3.90;99.90;;;;;;5063610;28;19928;-78
2024/01/22 06:42:41;;;;;;;;;;;-3.80;99.90;;;;;;5053325;28;19966;-78
2024/01/22 06:45:08;;;;;;;;;;;-3.80;99.90;;;;;;5070613;28;19921;-78
2024/01/22 06:47:34;;;;;;;;;;;-3.90;99.90;;;;;;5053752;28;19916;-78
2024/01/22 06:49:59;;;;;;;;;;;-3.90;99.90;;;;;;5052274;28;19928;-78
2024/01/22 06:52:25;;;;;;;;;;;-4.00;99.90;;;;;;5055852;28;19912;-79
2024/01/22 06:54:51;;;;;;;;;;;-4.00;99.90;;;;;;5057004;28;19908;-77
2024/01/22 06:57:16;;;;;;;;;;;-4.00;99.90;;;;;;5065267;28;20262;-78
2024/01/22 06:59:42;;;;;;;;;;;-4.00;99.90;;;;;;5052397;28;19917;-78
2024/01/22 07:02:07;;;;;;;;;;;-4.10;99.90;;;;;;5069850;28;19932;-78
2024/01/22 07:04:33;;;;;;;;;;;-4.00;99.90;;;;;;5074115;28;20003;-78
2024/01/22 07:06:58;;;;;;;;;;;-4.00;99.90;;;;;;5067400;28;19912;-78
2024/01/22 07:09:24;;;;;;;;;;;-3.90;99.90;;;;;;5056174;28;19916;-77
2024/01/22 07:11:50;;;;;;;;;;;-3.70;99.90;;;;;;5057007;28;19939;-77
2024/01/22 07:14:16;;;;;;;;;;;-3.50;99.90;;;;;;5056078;28;19920;-78
2024/01/22 07:16:41;;;;;;;;;;;-3.10;99.90;;;;;;5058660;28;19908;-78
2024/01/22 07:19:07;;;;;;;;;;;-2.80;99.90;;;;;;5056743;28;19972;-78
2024/01/22 07:21:33;;;;;;;;;;;-2.70;99.90;;;;;;5056579;28;19920;-78
2024/01/22 07:23:58;;;;;;;;;;;-2.40;99.90;;;;;;5074398;28;19940;-78
2024/01/22 07:26:24;;;;;;;;;;;-2.40;99.90;;;;;;5054140;28;19909;-78
2024/01/22 07:28:49;;;;;;;;;;;-2.40;99.90;;;;;;5063997;28;19916;-78
2024/01/22 07:31:15;;;;;;;;;;;-2.20;99.90;;;;;;5063985;28;19913;-77
2024/01/22 07:33:40;;;;;;;;;;;-1.80;99.90;;;;;;5068115;28;19920;-77
2024/01/22 07:36:06;;;;;;;;;;;-1.70;99.90;;;;;;5074303;28;19909;-78
2024/01/22 07:38:33;;;;;;;;;;;-1.50;99.90;;;;;;5073590;28;19908;-78
2024/01/22 07:40:58;;;;;;;;;;;-1.40;99.90;;;;;;5074763;28;20384;-78
2024/01/22 07:43:24;;;;;;;;;;;-1.40;99.90;;;;;;5056610;28;20003;-78
2024/01/22 07:45:50;;;;;;;;;;;-1.50;99.90;;;;;;5073822;28;19912;-78
2024/01/22 07:48:16;;;;;;;;;;;-1.40;99.90;;;;;;5074222;28;19940;-78
2024/01/22 07:50:41;;;;;;;;;;;-1.40;99.90;;;;;;5074483;28;20384;-77
2024/01/22 07:53:07;;;;;;;;;;;-1.00;99.90;;;;;;5075095;28;19913;-77
2024/01/22 07:55:33;;;;;;;;;;;-0.60;99.90;;;;;;5076114;28;19919;-78
2024/01/22 07:57:58;;;;;;;;;;;-0.30;99.90;;;;;;5058682;28;19908;-78
2024/01/22 08:00:24;;;;;;;;;;;-0.10;99.90;;;;;;5074557;28;19955;-78
2024/01/22 08:02:49;;;;;;;;;;;0.30;99.90;;;;;;5075261;28;19908;-78
2024/01/22 08:05:15;;;;;;;;;;;0.50;99.90;;;;;;5067826;28;20259;-77
2024/01/22 08:07:42;;;;;;;;;;;0.70;99.90;;;;;;5056490;28;19995;-77
2024/01/22 08:10:08;;;;;;;;;;;1.10;99.90;;;;;;5058600;28;19920;-77
2024/01/22 08:12:33;;;;;;;;;;;1.50;99.90;;;;;;5075869;28;19919;-77
2024/01/22 08:14:59;;;;;;;;;;;1.80;99.90;;;;;;5057908;28;19908;-77
2024/01/22 08:17:25;;;;;;;;;;;2.10;99.90;;;;;;5059620;28;19909;-78
2024/01/22 08:19:50;;;;;;;;;;;2.40;99.90;;;;;;5055563;28;19952;-78
2024/01/22 08:22:16;;;;;;;;;;;2.80;99.90;;;;;;5055635;28;19936;-78
2024/01/22 08:24:41;;;;;;;;;;;2.80;99.90;;;;;;5071759;28;19979;-77
2024/01/22 08:27:07;;;;;;;;;;;2.80;99.90;;;;;;5054919;28;20456;-77
2024/01/22 08:29:32;;;;;;;;;;;2.80;99.90;;;;;;5058023;28;19917;-78
2024/01/22 08:31:58;;;;;;;;;;;2.70;99.90;;;;;;5059025;28;19909;-76
2024/01/22 08:34:23;;;;;;;;;;;2.70;99.40;;;;;;5060428;28;19951;-79
2024/01/22 08:36:49;;;;;;;;;;;2.60;99.80;;;;;;5058714;28;20008;-78
2024/01/22 08:39:15;;;;;;;;;;;2.50;99.30;;;;;;5059128;28;19908;-78
2024/01/22 08:41:41;;;;;;;;;;;2.50;99.70;;;;;;5075244;28;20010;-77
2024/01/22 08:44:06;;;;;;;;;;;2.30;99.90;;;;;;5066984;28;19909;-78
2024/01/22 08:46:32;;;;;;;;;;;2.20;99.90;;;;;;5073330;28;19909;-79
2024/01/22 08:48:58;;;;;;;;;;;1.90;99.90;;;;;;5078851;28;19991;-78
2024/01/22 08:51:24;;;;;;;;;;;1.80;99.90;;;;;;5059577;28;19912;-79
2024/01/22 08:53:49;;;;;;;;;;;1.70;99.90;;;;;;5057101;28;19951;-78
2024/01/22 08:56:15;;;;;;;;;;;1.60;99.90;;;;;;5057650;28;19971;-78
2024/01/22 08:58:40;;;;;;;;;;;1.50;99.90;;;;;;5057302;28;19919;-79
2024/01/22 09:01:06;;;;;;;;;;;1.40;99.90;;;;;;5058940;28;19909;-78
2024/01/22 09:03:32;;;;;;;;;;;1.30;99.90;;;;;;5074263;28;20401;-78
2024/01/22 09:05:58;;;;;;;;;;;1.20;99.90;;;;;;5063196;28;19966;-79
2024/01/22 09:08:24;;;;;;;;;;;1.10;99.90;;;;;;5067547;28;19909;-79
2024/01/22 09:10:50;;;;;;;;;;;1.00;99.90;;;;;;5057760;28;19923;-78
2024/01/22 09:13:15;;;;;;;;;;;0.90;99.90;;;;;;5056823;28;19909;-79
2024/01/22 09:15:41;;;;;;;;;;;0.90;99.90;;;;;;5073062;28;19944;-78
2024/01/22 09:18:06;;;;;;;;;;;0.90;99.90;;;;;;5058142;28;19917;-76
2024/01/22 09:20:32;;;;;;;;;;;0.80;99.90;;;;;;5056647;28;19928;-79
2024/01/22 09:22:57;;;;;;;;;;;0.80;99.90;;;;;;5056685;28;19909;-78
2024/01/22 09:25:23;;;;;;;;;;;0.80;99.90;;;;;;5057889;28;20532;-78
2024/01/22 09:27:49;;;;;;;;;;;1.00;99.90;;;;;;5073309;28;19916;-78
2024/01/22 09:30:14;;;;;;;;;;;0.80;99.90;;;;;;5058543;28;20285;-79
2024/01/22 09:32:40;;;;;;;;;;;1.00;99.90;;;;;;5058441;28;19948;-78
2024/01/22 09:35:06;;;;;;;;;;;0.80;99.90;;;;;;5056314;28;19909;-79
2024/01/22 09:37:31;;;;;;;;;;;0.90;99.90;;;;;;5058052;28;19917;-78
2024/01/22 09:39:57;;;;;;;;;;;0.90;99.90;;;;;;5073468;28;19910;-78
2024/01/22 09:42:24;;;;;;;;;;;1.00;99.90;;;;;;5056133;28;19935;-79
2024/01/22 09:44:50;;;;;;;;;;;1.00;99.90;;;;;;5073840;28;19924;-79
2024/01/22 09:47:15;;;;;;;;;;;1.00;99.90;;;;;;5056616;28;19909;-79
2024/01/22 09:49:41;;;;;;;;;;;1.00;99.90;;;;;;5056053;28;19920;-77
2024/01/22 09:52:08;;;;;;;;;;;1.00;99.90;;;;;;5073092;28;19913;-79
2024/01/22 09:54:34;;;;;;;;;;;0.90;99.90;;;;;;5058085;28;19936;-79
2024/01/22 09:57:02;;;;;;;;;;;0.80;99.90;;;;;;5057940;28;20381;-78
2024/01/22 09:59:28;;;;;;;;;;;0.90;99.90;;;;;;5057658;28;19917;-78
2024/01/22 10:01:54;;;;;;;;;;;0.90;99.90;;;;;;5056736;28;20308;-78
2024/01/22 10:04:20;;;;;;;;;;;0.90;99.90;;;;;;5073103;28;19913;-78
2024/01/22 10:06:46;;;;;;;;;;;0.90;99.90;;;;;;5056345;28;19910;-79
2024/01/22 10:09:15;;;;;;;;;;;1.00;99.90;;;;;;5071072;28;20292;-77
2024/01/22 10:11:41;;;;;;;;;;;1.10;99.90;;;;;;5056385;28;20405;-78
2024/01/22 10:14:07;;;;;;;;;;;1.00;99.90;;;;;;5072378;28;19912;-79
2024/01/22 10:16:33;;;;;;;;;;;1.10;99.90;;;;;;5072709;28;19913;-78
2024/01/22 10:18:59;;;;;;;;;;;1.00;99.90;;;;;;5055603;28;19913;-78
2024/01/22 10:21:25;;;;;;;;;;;1.10;99.90;;;;;;5055639;28;19928;-78
2024/01/22 10:23:57;;;;;;;;;;;1.20;99.90;;;;;;5056134;28;19909;-79
2024/01/22 10:26:22;;;;;;;;;;;1.00;99.90;;;;;;5056285;28;19909;-78
2024/01/22 10:28:48;;;;;;;;;;;0.90;99.90;;;;;;5051565;28;19923;-78
2024/01/22 10:31:13;;;;;;;;;;;0.90;99.90;;;;;;5055807;28;20516;-79
2024/01/22 10:33:39;;;;;;;;;;;0.90;99.90;;;;;;5057746;28;19920;-77
2024/01/22 10:36:17;;;;;;;;;;;1.10;99.90;;;;;;5056740;28;19977;-79
2024/01/22 10:38:43;;;;;;;;;;;1.10;99.90;;;;;;5060037;28;19919;-78
2024/01/22 10:41:19;;;;;;;;;;;1.20;99.90;;;;;;5060603;28;19928;-79
2024/01/22 10:43:44;;;;;;;;;;;1.30;99.90;;;;;;5054809;28;19919;-79
2024/01/22 10:46:10;;;;;;;;;;;1.40;99.90;;;;;;5059276;28;19912;-79
2024/01/22 10:48:37;;;;;;;;;;;1.30;99.90;;;;;;5059206;28;20034;-79
2024/01/22 10:51:03;;;;;;;;;;;1.50;99.90;;;;;;5051186;28;19925;-79
2024/01/22 10:53:29;;;;;;;;;;;1.70;99.90;;;;;;5077267;28;19916;-79
2024/01/22 10:56:00;;;;;;;;;;;1.70;99.90;;;;;;5076261;28;19909;-78
2024/01/22 10:58:27;;;;;;;;;;;1.70;99.90;;;;;;5059641;28;20552;-79
2024/01/22 11:00:58;;;;;;;;;;;1.60;99.90;;;;;;5061674;28;20294;-77
2024/01/22 11:03:25;;;;;;;;;;;1.30;99.90;;;;;;5056686;28;19976;-78
2024/01/22 11:05:55;;;;;;;;;;;1.20;99.90;;;;;;5056997;28;19913;-79
2024/01/22 11:08:20;;;;;;;;;;;1.10;99.90;;;;;;5041943;28;19915;-79
2024/01/22 11:10:47;;;;;;;;;;;1.00;99.90;;;;;;5056806;28;19921;-79
2024/01/22 11:13:15;;;;;;;;;;;1.00;99.90;;;;;;5042388;28;19909;-79
2024/01/22 11:15:42;;;;;;;;;;;0.90;99.90;;;;;;5041924;28;19913;-79
2024/01/22 11:18:09;;;;;;;;;;;0.90;99.90;;;;;;5043094;28;19963;-80
2024/01/22 11:20:37;;;;;;;;;;;0.90;99.90;;;;;;5068533;28;19925;-80
2024/01/22 11:23:04;;;;;;;;;;;1.00;99.90;;;;;;5046472;28;19909;-79
2024/01/22 11:25:31;;;;;;;;;;;1.00;99.90;;;;;;5068863;28;19924;-80
2024/01/22 11:28:05;;;;;;;;;;;0.80;99.90;;;;;;5071884;28;19909;-80
2024/01/22 11:30:32;;;;;;;;;;;0.80;99.90;;;;;;5052909;28;20261;-78
2024/01/22 11:32:57;;;;;;;;;;;0.90;99.90;;;;;;5038744;28;19909;-78
2024/01/22 11:35:33;;;;;;;;;;;0.90;99.90;;;;;;5053065;28;19955;-78
2024/01/22 11:37:59;;;;;;;;;;;1.00;99.90;;;;;;5054457;28;19916;-78
2024/01/22 11:40:46;;;;;;;;;;;1.00;99.90;;;;;;5055085;28;20595;-79
2024/01/22 11:43:12;;;;;;;;;;;1.00;99.90;;;;;;5033978;28;20333;-79
2024/01/22 11:45:37;;;;;;;;;;;1.00;99.90;;;;;;5068528;28;20373;-79
2024/01/22 11:48:03;;;;;;;;;;;1.00;99.90;;;;;;5058589;28;19912;-79
2024/01/22 11:50:28;;;;;;;;;;;1.00;99.90;;;;;;5059539;28;19924;-80
2024/01/22 11:52:59;;;;;;;;;;;1.00;99.90;;;;;;5054380;28;19916;-80
2024/01/22 11:55:24;;;;;;;;;;;0.90;99.90;;;;;;5060058;28;19916;-79
2024/01/22 11:57:50;;;;;;;;;;;0.90;99.90;;;;;;5060075;28;19910;-78
2024/01/22 12:00:22;;;;;;;;;;;1.00;99.90;;;;;;5060536;28;19909;-79
2024/01/22 12:02:49;;;;;;;;;;;0.90;99.90;;;;;;5060236;28;19913;-79
2024/01/22 12:05:19;;;;;;;;;;;0.90;99.90;;;;;;5059844;28;20321;-79
2024/01/22 12:07:48;;;;;;;;;;;1.00;99.90;;;;;;5056466;28;19917;-79
2024/01/22 12:10:20;;;;;;;;;;;1.00;99.90;;;;;;5058601;28;20006;-78
2024/01/22 12:12:49;;;;;;;;;;;1.20;99.90;;;;;;5045364;28;19913;-78
2024/01/22 12:15:15;;;;;;;;;;;1.20;99.90;;;;;;5057773;28;19909;-78
2024/01/22 12:17:43;;;;;;;;;;;1.30;99.90;;;;;;5057385;28;19919;-79
2024/01/22 12:20:09;;;;;;;;;;;1.20;99.90;;;;;;5056522;28;19921;-78
2024/01/22 12:22:35;;;;;;;;;;;1.20;99.90;;;;;;5055648;28;19924;-79
2024/01/22 12:25:12;;;;;;;;;;;1.20;99.90;;;;;;5055212;28;19915;-79
2024/01/22 12:27:38;;;;;;;;;;;0.90;99.90;;;;;;5054774;28;19956;-79
2024/01/22 12:30:08;;;;;;;;;;;0.60;99.90;;;;;;5054617;28;19952;-78
2024/01/22 12:32:35;;;;;;;;;;;0.40;99.90;;;;;;5056353;28;19966;-79
2024/01/22 12:35:01;;;;;;;;;;;0.30;99.90;;;;;;5055039;28;20293;-79
2024/01/22 12:37:30;;;;;;;;;;;0.20;99.90;;;;;;5054231;28;19934;-78
2024/01/22 12:40:04;;;;;;;;;;;0.10;99.90;;;;;;5054313;28;19909;-78
2024/01/22 12:42:30;;;;;;;;;;;0.10;99.90;;;;;;5054174;28;19916;-78
2024/01/22 12:44:59;;;;;;;;;;;0.10;99.90;;;;;;5060527;28;19912;-80
2024/01/22 12:47:25;;;;;;;;;;;-0.10;99.90;;;;;;5054575;28;19948;-79
2024/01/22 12:49:52;;;;;;;;;;;-0.10;99.90;;;;;;5054808;28;19970;-79
2024/01/22 12:52:18;;;;;;;;;;;-0.10;99.90;;;;;;5055042;28;19913;-79
2024/01/22 12:54:43;;;;;;;;;;;-0.10;99.90;;;;;;5055832;28;19999;-78
2024/01/22 12:57:09;;;;;;;;;;;-0.10;99.90;;;;;;5055258;28;19948;-78
2024/01/22 12:59:35;;;;;;;;;;;-0.20;99.90;;;;;;5053746;28;20317;-79
2024/01/22 13:02:01;;;;;;;;;;;-0.30;99.90;;;;;;5071060;28;19912;-78
2024/01/22 13:04:26;;;;;;;;;;;-0.30;99.90;;;;;;5071075;28;20261;-79
2024/01/22 13:06:51;;;;;;;;;;;-0.40;99.90;;;;;;5054816;28;19954;-79
2024/01/22 13:09:17;;;;;;;;;;;-0.30;99.90;;;;;;5055521;28;19908;-78
2024/01/22 13:11:44;;;;;;;;;;;-0.30;99.90;;;;;;5048943;28;20373;-78
2024/01/22 13:14:09;;;;;;;;;;;-0.10;99.90;;;;;;5055312;28;20477;-79
2024/01/22 13:16:35;;;;;;;;;;;-0.30;99.90;;;;;;5055594;28;19916;-78
2024/01/22 13:19:01;;;;;;;;;;;-0.30;99.90;;;;;;5053917;28;19956;-79
2024/01/22 13:21:26;;;;;;;;;;;-0.20;99.90;;;;;;5053918;28;19944;-78
2024/01/22 13:23:53;;;;;;;;;;;-0.30;99.90;;;;;;5055575;28;19916;-78
2024/01/22 13:26:19;;;;;;;;;;;-0.40;99.90;;;;;;5054293;28;20020;-78
2024/01/22 13:28:45;;;;;;;;;;;-0.50;99.90;;;;;;5054156;28;19955;-78
2024/01/22 13:31:11;;;;;;;;;;;-0.50;99.90;;;;;;5055139;28;19916;-78
2024/01/22 13:33:37;;;;;;;;;;;-0.40;99.90;;;;;;5053960;28;19988;-79
2024/01/22 13:36:03;;;;;;;;;;;-0.50;99.90;;;;;;5054889;28;19968;-79
2024/01/22 13:38:32;;;;;;;;;;;-0.60;99.90;;;;;;5036307;28;19915;-79
2024/01/22 13:41:01;;;;;;;;;;;-0.70;99.90;;;;;;5050964;28;19990;-78
2024/01/22 13:43:27;;;;;;;;;;;-0.60;99.90;;;;;;5035167;28;19909;-79
2024/01/22 13:45:53;;;;;;;;;;;-0.70;99.90;;;;;;5050893;28;19936;-78
2024/01/22 13:48:18;;;;;;;;;;;-0.70;99.90;;;;;;5047853;28;19916;-79
2024/01/22 13:50:44;;;;;;;;;;;-0.70;99.90;;;;;;5053669;28;19917;-79
2024/01/22 13:53:10;;;;;;;;;;;-0.70;99.90;;;;;;5055061;28;19944;-78
2024/01/22 13:55:36;;;;;;;;;;;-0.90;99.90;;;;;;5053748;28;20384;-78
2024/01/22 13:58:01;;;;;;;;;;;-1.10;99.90;;;;;;5054196;28;19917;-78
2024/01/22 14:00:27;;;;;;;;;;;-0.90;99.90;;;;;;5054760;28;19915;-78
2024/01/22 14:02:52;;;;;;;;;;;-0.80;99.90;;;;;;5053257;28;19917;-77
2024/01/22 14:05:18;;;;;;;;;;;-0.90;99.90;;;;;;5059745;28;19913;-78
2024/01/22 14:07:43;;;;;;;;;;;-0.80;99.90;;;;;;5071773;28;19916;-79
2024/01/22 14:10:12;;;;;;;;;;;-0.80;99.90;;;;;;5064005;28;20402;-79
2024/01/22 14:12:38;;;;;;;;;;;-0.90;99.90;;;;;;5039321;28;19920;-78
2024/01/22 14:15:04;;;;;;;;;;;-1.00;99.90;;;;;;5053643;28;20452;-78